Terminal Aerodrome Forecast
Issued by NWS

Home | Current Version | Previous Version | Text Only | Print | Product List | Glossary On
Versions: 1 2 3 4 5 6 7 8 9 10 11 12
000
FTUS45 KREV 281120
TAFMMH
TAF
KMMH 281120Z 2812/2912 VRB03KT P6SM SKC
     FM281800 13008KT P6SM SCT180
     FM282300 26009G16KT P6SM SCT100 BKN180
     FM290300 VRB03KT P6SM FEW100 BKN180=

USA.gov is the U.S. government's official web portal to all federal, state and local government web resources and services.